Time;durP1;ratioP1;P1;durP2;ratioP2;P2;SDS_P1;SDS_P2;PMS_P1;PMS_P2;Temp;Humidity;BMP_temperature;BMP_pressure;BME280_temperature;BME280_humidity;BME280_pressure;Samples;Min_cycle;Max_cycle;Signal;HPM_P1;HPM_P2
2022/05/29 00:02:19;;;;;;;1.55;1.10;;;16.20;52.70;;;;;;4959552;28;20057;-79
2022/05/29 00:04:45;;;;;;;1.25;1.00;;;16.20;52.80;;;;;;4957269;28;20026;-79
2022/05/29 00:07:14;;;;;;;1.92;1.10;;;16.20;52.90;;;;;;4975447;28;20042;-79
2022/05/29 00:09:43;;;;;;;1.58;1.10;;;16.20;52.90;;;;;;4972819;28;20507;-79
2022/05/29 00:12:10;;;;;;;1.77;1.08;;;16.20;53.00;;;;;;4974888;28;20065;-79
2022/05/29 00:14:37;;;;;;;1.42;1.00;;;16.10;53.00;;;;;;4965544;28;20027;-79
2022/05/29 00:17:04;;;;;;;1.02;0.93;;;16.10;53.00;;;;;;4957728;28;20031;-79
2022/05/29 00:19:30;;;;;;;0.90;0.90;;;16.10;53.10;;;;;;4985190;28;20043;-79
2022/05/29 00:21:56;;;;;;;1.50;1.15;;;16.10;53.10;;;;;;4975099;28;20045;-82
2022/05/29 00:24:22;;;;;;;0.90;0.90;;;16.10;53.10;;;;;;4965632;28;20019;-79
2022/05/29 00:26:48;;;;;;;1.17;1.08;;;16.00;53.10;;;;;;4973877;28;20336;-79
2022/05/29 00:29:14;;;;;;;1.63;1.10;;;16.00;53.20;;;;;;4958400;28;20387;-79
2022/05/29 00:31:40;;;;;;;0.95;0.90;;;16.00;53.20;;;;;;4958074;28;20439;-79
2022/05/29 00:34:06;;;;;;;2.05;1.00;;;16.00;53.30;;;;;;4958931;28;20042;-79
2022/05/29 00:36:38;;;;;;;1.90;1.17;;;16.00;53.30;;;;;;4983255;28;20349;-79
2022/05/29 00:39:04;;;;;;;2.00;1.10;;;15.90;53.30;;;;;;4959397;28;20022;-80
2022/05/29 00:41:35;;;;;;;1.58;1.10;;;15.90;53.30;;;;;;4980168;28;20104;-79
2022/05/29 00:44:14;;;;;;;1.17;1.10;;;15.90;53.50;;;;;;4978625;28;20022;-79
2022/05/29 00:46:45;;;;;;;1.23;1.08;;;15.90;53.60;;;;;;4958144;28;20031;-79
2022/05/29 00:49:11;;;;;;;2.35;1.02;;;15.90;53.60;;;;;;4973629;28;20109;-83
2022/05/29 00:51:40;;;;;;;1.75;1.05;;;15.80;53.50;;;;;;4973647;28;20019;-78
2022/05/29 00:54:07;;;;;;;1.50;1.30;;;15.80;53.60;;;;;;4963072;28;20029;-78
2022/05/29 00:56:36;;;;;;;1.30;1.20;;;15.80;53.60;;;;;;4973139;28;20034;-80
2022/05/29 00:59:02;;;;;;;2.33;1.20;;;15.80;53.70;;;;;;5005053;28;20062;-78
2022/05/29 01:01:29;;;;;;;1.00;0.98;;;15.80;53.80;;;;;;4975492;28;20375;-79
2022/05/29 01:03:55;;;;;;;2.63;1.15;;;15.80;53.80;;;;;;4972657;28;20046;-79
2022/05/29 01:06:22;;;;;;;1.45;1.10;;;15.80;53.90;;;;;;4975828;28;20041;-79
2022/05/29 01:08:48;;;;;;;3.65;1.40;;;15.80;53.90;;;;;;4990498;28;20053;-79
2022/05/29 01:11:42;;;;;;;1.33;1.10;;;15.70;53.90;;;;;;4972725;28;20044;-79
2022/05/29 01:14:36;;;;;;;1.43;1.10;;;15.70;54.20;;;;;;4973271;28;20081;-79
2022/05/29 01:17:33;;;;;;;1.45;1.10;;;15.70;54.10;;;;;;4967644;28;20035;-78
2022/05/29 01:20:07;;;;;;;1.20;1.02;;;15.70;54.30;;;;;;4974247;28;20050;-79
2022/05/29 01:23:18;;;;;;;1.25;1.00;;;15.60;54.20;;;;;;4972477;28;20109;-79
2022/05/29 01:26:22;;;;;;;0.90;0.90;;;15.60;54.40;;;;;;4942432;28;20138;-79
2022/05/29 01:28:59;;;;;;;1.73;1.20;;;15.60;54.50;;;;;;4938675;28;20031;-79
2022/05/29 01:31:50;;;;;;;1.10;1.00;;;15.60;54.50;;;;;;4974405;28;20072;-79
2022/05/29 01:34:32;;;;;;;1.25;1.10;;;15.50;54.60;;;;;;4973273;28;20027;-79
2022/05/29 01:36:58;;;;;;;1.38;1.10;;;15.50;54.60;;;;;;4972818;28;20098;-79
2022/05/29 01:39:32;;;;;;;1.65;1.10;;;15.50;54.60;;;;;;4974738;28;20107;-78
2022/05/29 01:42:10;;;;;;;1.10;1.00;;;15.50;54.70;;;;;;4972825;28;20022;-79
2022/05/29 01:44:50;;;;;;;1.10;1.00;;;15.50;54.70;;;;;;4971906;28;20105;-79
2022/05/29 01:47:33;;;;;;;1.35;1.20;;;15.50;54.80;;;;;;4972683;28;20023;-80
2022/05/29 01:50:02;;;;;;;1.58;1.30;;;15.50;54.90;;;;;;4957725;28;20109;-79
2022/05/29 01:52:42;;;;;;;1.33;1.10;;;15.50;54.90;;;;;;4976589;28;20444;-79
2022/05/29 01:55:24;;;;;;;2.33;1.20;;;15.50;55.00;;;;;;4972819;28;20031;-79
2022/05/29 01:57:53;;;;;;;1.30;1.20;;;15.50;55.10;;;;;;4956900;28;20367;-79
2022/05/29 02:00:23;;;;;;;1.20;1.10;;;15.50;55.00;;;;;;4970630;28;20109;-79
2022/05/29 02:02:56;;;;;;;2.53;1.30;;;15.40;55.00;;;;;;4969556;28;20027;-79
2022/05/29 02:05:27;;;;;;;1.70;1.30;;;15.50;55.20;;;;;;4971741;28;20081;-79
2022/05/29 02:08:01;;;;;;;3.13;1.65;;;15.50;55.10;;;;;;4974551;28;20027;-79
2022/05/29 02:10:48;;;;;;;1.77;1.15;;;15.40;55.20;;;;;;4973753;28;20101;-79
2022/05/29 02:13:24;;;;;;;1.77;1.20;;;15.40;55.30;;;;;;4973858;28;20419;-79
2022/05/29 02:15:58;;;;;;;1.70;1.27;;;15.40;55.20;;;;;;4986908;28;20365;-79
2022/05/29 02:18:36;;;;;;;1.63;1.40;;;15.40;55.30;;;;;;4993433;28;20038;-79
2022/05/29 02:21:10;;;;;;;1.35;1.10;;;15.40;55.40;;;;;;4979136;28;20057;-78
2022/05/29 02:23:41;;;;;;;2.08;1.20;;;15.40;55.40;;;;;;4973724;28;20038;-79
2022/05/29 02:26:13;;;;;;;1.35;1.10;;;15.40;55.40;;;;;;4956780;28;20026;-79
2022/05/29 02:28:42;;;;;;;3.00;1.50;;;15.30;55.40;;;;;;4970066;28;20038;-78
2022/05/29 02:31:34;;;;;;;1.48;1.20;;;15.40;55.40;;;;;;4961645;28;20033;-79
2022/05/29 02:34:56;;;;;;;1.95;1.20;;;15.30;55.50;;;;;;4969267;28;20058;-79
2022/05/29 02:37:21;;;;;;;1.88;1.30;;;15.30;55.60;;;;;;4964216;28;20047;-79
2022/05/29 02:39:53;;;;;;;1.50;1.27;;;15.30;55.40;;;;;;4979601;28;20022;-79
2022/05/29 02:42:40;;;;;;;2.45;1.40;;;15.30;55.50;;;;;;4979459;28;20027;-79
2022/05/29 02:45:41;;;;;;;1.30;1.20;;;15.30;55.60;;;;;;4978365;28;20061;-79
2022/05/29 02:48:43;;;;;;;1.60;1.27;;;15.20;55.60;;;;;;4958731;28;20030;-78
2022/05/29 02:51:32;;;;;;;2.75;1.52;;;15.30;55.70;;;;;;4966789;28;20042;-79
2022/05/29 02:53:57;;;;;;;2.55;1.42;;;15.20;55.60;;;;;;4959185;28;20031;-79
2022/05/29 02:56:23;;;;;;;1.30;1.00;;;15.20;56.20;;;;;;4979699;28;20372;-79
2022/05/29 02:58:54;;;;;;;1.42;1.17;;;15.20;55.60;;;;;;4978300;28;20037;-79
2022/05/29 03:01:38;;;;;;;1.70;1.23;;;15.20;55.70;;;;;;4977066;28;20035;-79
2022/05/29 03:04:30;;;;;;;1.30;1.20;;;15.20;55.70;;;;;;4979503;28;20442;-79
2022/05/29 03:07:05;;;;;;;2.55;1.45;;;15.20;55.70;;;;;;4955750;28;20074;-80
2022/05/29 03:09:57;;;;;;;1.58;1.30;;;15.20;55.80;;;;;;4978665;28;20114;-79
2022/05/29 03:12:38;;;;;;;2.05;1.25;;;15.20;55.80;;;;;;4972481;28;20043;-79
2022/05/29 03:15:23;;;;;;;2.42;1.23;;;15.10;55.90;;;;;;4958935;29;20019;-79
2022/05/29 03:18:07;;;;;;;1.80;1.30;;;15.10;55.90;;;;;;4970827;28;20030;-80
2022/05/29 03:20:54;;;;;;;1.30;1.17;;;15.10;55.90;;;;;;4977161;28;20075;-79
2022/05/29 03:23:35;;;;;;;1.27;1.15;;;15.10;56.00;;;;;;4979558;28;20471;-79
2022/05/29 03:26:06;;;;;;;1.10;1.00;;;15.10;55.90;;;;;;4979510;28;20033;-79
2022/05/29 03:28:47;;;;;;;1.27;1.10;;;15.00;55.90;;;;;;4977387;28;20019;-79
2022/05/29 03:31:18;;;;;;;3.03;1.30;;;15.10;56.10;;;;;;4969407;28;20035;-79
2022/05/29 03:33:46;;;;;;;1.13;1.00;;;15.10;56.10;;;;;;4971578;28;20026;-79
2022/05/29 03:36:15;;;;;;;1.85;1.10;;;15.00;56.00;;;;;;4978319;28;20403;-79
2022/05/29 03:38:41;;;;;;;1.08;1.08;;;15.00;56.00;;;;;;4959309;28;20408;-79
2022/05/29 03:41:31;;;;;;;1.15;1.05;;;15.00;56.10;;;;;;4973835;28;20023;-79
2022/05/29 03:43:57;;;;;;;1.02;1.02;;;15.00;56.20;;;;;;4977710;28;20050;-79
2022/05/29 03:46:22;;;;;;;1.50;1.02;;;15.00;56.10;;;;;;4974117;28;20031;-79
2022/05/29 03:48:48;;;;;;;1.45;1.00;;;15.00;56.20;;;;;;4972920;28;20448;-82
2022/05/29 03:51:14;;;;;;;1.60;1.33;;;15.00;56.20;;;;;;4969239;28;20037;-79
2022/05/29 03:53:40;;;;;;;1.13;1.08;;;15.00;56.30;;;;;;4958601;28;20439;-79
2022/05/29 03:56:05;;;;;;;1.58;1.10;;;15.00;56.30;;;;;;4938010;29;20035;-79
2022/05/29 03:58:31;;;;;;;1.15;1.05;;;15.00;56.30;;;;;;4969216;28;20030;-79
2022/05/29 04:00:57;;;;;;;1.27;1.17;;;15.00;56.40;;;;;;4957968;28;20039;-79
2022/05/29 04:03:23;;;;;;;0.98;0.90;;;15.00;56.40;;;;;;4974770;28;20027;-79
2022/05/29 04:05:49;;;;;;;1.40;1.20;;;15.00;56.40;;;;;;4976559;28;20422;-79
2022/05/29 04:13:45;;;;;;;1.20;1.10;;;14.90;56.40;;;;;;4974861;28;20022;-79
2022/05/29 04:16:11;;;;;;;2.08;1.20;;;14.90;56.50;;;;;;4972692;28;20030;-80
2022/05/29 04:18:37;;;;;;;1.15;1.05;;;14.90;56.50;;;;;;4958562;28;20062;-79
2022/05/29 04:21:05;;;;;;;1.58;1.10;;;14.90;56.60;;;;;;4971770;28;20050;-79
2022/05/29 04:23:31;;;;;;;2.00;1.23;;;14.90;56.60;;;;;;4966110;28;20070;-80
2022/05/29 04:25:57;;;;;;;1.40;1.30;;;14.90;56.70;;;;;;4947198;28;20030;-79
2022/05/29 04:28:23;;;;;;;1.42;1.23;;;14.90;56.70;;;;;;4968879;28;20078;-79
2022/05/29 04:30:49;;;;;;;1.45;1.17;;;14.90;56.70;;;;;;4972634;28;20030;-79
2022/05/29 04:33:15;;;;;;;1.45;1.27;;;14.90;56.80;;;;;;4972880;28;20030;-79
2022/05/29 04:35:42;;;;;;;1.77;1.25;;;14.90;56.80;;;;;;4975390;28;20019;-79
2022/05/29 04:38:10;;;;;;;1.40;1.30;;;14.90;56.90;;;;;;4973931;28;20058;-79
2022/05/29 04:40:38;;;;;;;1.92;1.30;;;14.90;56.90;;;;;;4956177;28;20487;-80
2022/05/29 04:43:03;;;;;;;1.30;1.20;;;14.90;56.90;;;;;;4973761;28;20023;-79
2022/05/29 04:45:30;;;;;;;1.38;1.15;;;14.90;56.90;;;;;;4957609;28;20031;-79
2022/05/29 04:47:55;;;;;;;1.95;1.33;;;14.90;57.00;;;;;;4958241;28;20113;-79
2022/05/29 04:50:21;;;;;;;2.65;1.40;;;14.90;57.00;;;;;;4957930;28;20125;-79
2022/05/29 04:52:49;;;;;;;1.52;1.20;;;14.90;57.00;;;;;;4966598;28;20371;-80
2022/05/29 04:55:14;;;;;;;1.15;1.10;;;14.90;57.00;;;;;;4988141;28;20118;-79
2022/05/29 04:57:40;;;;;;;1.00;1.00;;;14.90;57.00;;;;;;4955641;28;20113;-79
2022/05/29 05:00:07;;;;;;;1.38;1.10;;;14.90;57.00;;;;;;4967439;28;20026;-79
2022/05/29 05:02:33;;;;;;;1.02;1.00;;;14.90;57.00;;;;;;4963854;28;20031;-79
2022/05/29 05:04:59;;;;;;;1.13;1.00;;;14.90;57.00;;;;;;4941700;28;20375;-79
2022/05/29 05:07:24;;;;;;;1.60;1.17;;;14.90;57.00;;;;;;4972120;28;20023;-79
2022/05/29 05:09:50;;;;;;;1.35;1.20;;;14.90;57.00;;;;;;4964349;28;20110;-79
2022/05/29 05:12:16;;;;;;;2.50;1.30;;;14.90;57.10;;;;;;4970078;28;20026;-79
2022/05/29 05:14:41;;;;;;;1.20;1.10;;;14.90;57.10;;;;;;4941158;28;20026;-79
2022/05/29 05:17:07;;;;;;;1.60;1.10;;;14.90;57.10;;;;;;4979349;28;20022;-79
2022/05/29 05:19:33;;;;;;;1.30;1.20;;;14.90;57.10;;;;;;4991172;28;20038;-79
2022/05/29 05:22:04;;;;;;;1.90;1.25;;;14.90;57.20;;;;;;4942810;28;20118;-79
2022/05/29 05:24:30;;;;;;;0.90;0.90;;;14.90;57.20;;;;;;4955549;28;20037;-79
2022/05/29 05:26:58;;;;;;;1.52;1.30;;;14.90;57.20;;;;;;4973990;28;20042;-79
2022/05/29 05:29:25;;;;;;;1.70;1.08;;;14.90;57.20;;;;;;4971712;28;20104;-80
2022/05/29 05:31:50;;;;;;;1.88;1.10;;;14.90;57.20;;;;;;4973799;28;20031;-79
2022/05/29 05:34:16;;;;;;;1.60;1.20;;;14.90;57.20;;;;;;4974991;28;20027;-79
2022/05/29 05:36:42;;;;;;;1.00;0.95;;;14.90;57.20;;;;;;4974175;28;20054;-82
2022/05/29 05:39:08;;;;;;;1.48;1.05;;;14.90;57.20;;;;;;4973562;28;20031;-79
2022/05/29 05:41:35;;;;;;;1.25;1.13;;;14.90;57.30;;;;;;4972853;28;20022;-79
2022/05/29 05:44:01;;;;;;;1.85;1.10;;;14.90;57.40;;;;;;4954098;28;20027;-79
2022/05/29 05:46:27;;;;;;;1.17;1.13;;;14.90;57.40;;;;;;4948063;28;20122;-79
2022/05/29 05:48:54;;;;;;;1.63;1.13;;;14.90;57.50;;;;;;4973236;28;20107;-79
2022/05/29 05:51:20;;;;;;;1.17;1.02;;;14.90;57.50;;;;;;4973326;28;20030;-79
2022/05/29 05:53:46;;;;;;;1.33;1.00;;;14.90;57.50;;;;;;4971152;28;20056;-79
2022/05/29 05:56:15;;;;;;;1.00;1.00;;;14.90;57.50;;;;;;4971353;28;20023;-79
2022/05/29 05:58:43;;;;;;;1.00;1.00;;;14.90;57.60;;;;;;4972863;28;20026;-79
2022/05/29 06:01:16;;;;;;;1.15;1.10;;;14.90;57.50;;;;;;4972798;28;20050;-79
2022/05/29 06:03:43;;;;;;;1.10;1.00;;;14.90;57.60;;;;;;4972430;28;20121;-80
2022/05/29 06:06:09;;;;;;;1.10;1.00;;;14.90;57.60;;;;;;4973963;28;20522;-79
2022/05/29 06:08:35;;;;;;;1.00;1.00;;;14.90;57.60;;;;;;4982167;28;20348;-79
2022/05/29 06:11:01;;;;;;;1.10;1.00;;;14.90;57.60;;;;;;4965009;28;20374;-79
2022/05/29 06:13:26;;;;;;;1.08;0.98;;;14.90;57.60;;;;;;4970968;28;20027;-80
2022/05/29 06:15:53;;;;;;;1.00;1.00;;;14.90;57.60;;;;;;4938564;28;20022;-81
2022/05/29 06:18:19;;;;;;;1.05;0.95;;;14.90;57.70;;;;;;4971561;28;20101;-79
2022/05/29 06:20:45;;;;;;;1.48;1.00;;;15.00;57.80;;;;;;4974875;28;20073;-80
2022/05/29 06:23:12;;;;;;;1.88;1.20;;;15.00;57.80;;;;;;4971958;28;20035;-81
2022/05/29 06:25:42;;;;;;;1.20;0.90;;;15.00;57.80;;;;;;4956957;28;20026;-80
2022/05/29 06:28:08;;;;;;;1.02;0.95;;;15.00;57.90;;;;;;4970661;28;20038;-79
2022/05/29 06:30:35;;;;;;;1.38;1.05;;;15.00;57.80;;;;;;4972992;28;20034;-80
2022/05/29 06:33:01;;;;;;;0.90;0.90;;;15.00;57.80;;;;;;4972009;28;20037;-79
2022/05/29 06:35:27;;;;;;;1.05;0.95;;;15.00;57.90;;;;;;4944954;28;20085;-80
2022/05/29 06:37:53;;;;;;;1.00;1.00;;;15.00;57.90;;;;;;4975371;28;20027;-80
2022/05/29 06:40:19;;;;;;;1.10;0.93;;;15.00;57.90;;;;;;4956581;28;20023;-79
2022/05/29 06:42:45;;;;;;;1.35;1.00;;;15.00;57.90;;;;;;4973954;28;20344;-80
2022/05/29 06:45:11;;;;;;;1.00;0.90;;;15.00;58.00;;;;;;4971672;28;20018;-78
2022/05/29 06:47:39;;;;;;;1.08;1.00;;;15.00;58.00;;;;;;4979212;28;20042;-79
2022/05/29 06:50:05;;;;;;;1.13;1.00;;;15.10;58.00;;;;;;4970111;28;20448;-80
2022/05/29 06:52:32;;;;;;;1.00;1.00;;;15.10;58.10;;;;;;4977411;28;20043;-79
2022/05/29 06:54:58;;;;;;;1.35;1.00;;;15.10;58.10;;;;;;4972872;28;20106;-78
2022/05/29 06:57:36;;;;;;;1.40;0.90;;;15.10;58.10;;;;;;4957644;28;20026;-80
2022/05/29 07:08:25;;;;;;;1.20;0.90;;;15.20;58.10;;;;;;4956409;28;20055;-79
2022/05/29 07:10:50;;;;;;;1.00;0.90;;;15.20;58.10;;;;;;4957588;28;20069;-79
2022/05/29 07:13:16;;;;;;;0.82;0.82;;;15.20;58.80;;;;;;4952666;28;20031;-80
2022/05/29 07:15:42;;;;;;;1.20;1.10;;;15.20;58.20;;;;;;4954212;28;20023;-79
2022/05/29 07:18:08;;;;;;;1.42;1.00;;;15.20;58.30;;;;;;4970009;28;20027;-79
2022/05/29 07:20:35;;;;;;;1.20;1.10;;;15.20;58.30;;;;;;4971374;28;20451;-79
2022/05/29 07:23:01;;;;;;;1.05;1.00;;;15.30;58.30;;;;;;4973586;28;20034;-79
2022/05/29 07:25:27;;;;;;;0.88;0.88;;;15.30;58.30;;;;;;4954780;28;20408;-81
2022/05/29 07:27:52;;;;;;;0.75;0.75;;;15.20;58.30;;;;;;4964622;28;20113;-78
2022/05/29 07:30:18;;;;;;;1.20;1.10;;;15.20;58.30;;;;;;4972639;28;20527;-79
2022/05/29 07:32:44;;;;;;;1.00;0.90;;;15.30;58.30;;;;;;4974260;28;20077;-78
2022/05/29 07:35:10;;;;;;;1.38;1.10;;;15.30;58.30;;;;;;4956937;28;20089;-79
2022/05/29 07:37:35;;;;;;;1.15;0.95;;;15.40;58.40;;;;;;4956317;28;20035;-80
2022/05/29 07:40:03;;;;;;;1.17;0.93;;;15.30;58.30;;;;;;4960004;28;20073;-81
2022/05/29 07:45:13;;;;;;;0.80;0.80;;;15.30;58.40;;;;;;4973700;28;20078;-80
2022/05/29 07:47:43;;;;;;;1.20;1.10;;;15.40;58.40;;;;;;4970836;28;20023;-81
2022/05/29 07:50:12;;;;;;;0.90;0.90;;;15.40;58.40;;;;;;4956994;28;20081;-80
2022/05/29 07:52:38;;;;;;;1.38;1.02;;;15.40;58.40;;;;;;4973400;28;20030;-80
2022/05/29 07:55:04;;;;;;;0.93;0.90;;;15.40;58.40;;;;;;4973281;28;20031;-81
2022/05/29 07:57:30;;;;;;;1.05;1.00;;;15.40;59.10;;;;;;4953801;28;20435;-80
2022/05/29 07:59:56;;;;;;;1.10;1.00;;;15.40;58.40;;;;;;4972417;28;20031;-79
2022/05/29 08:02:21;;;;;;;1.17;1.00;;;15.40;58.40;;;;;;4971819;28;20030;-84
2022/05/29 08:04:47;;;;;;;1.00;0.90;;;15.50;58.50;;;;;;4956723;28;20031;-80
2022/05/29 08:07:16;;;;;;;1.00;1.00;;;15.50;58.50;;;;;;4938577;28;20395;-80
2022/05/29 08:09:43;;;;;;;1.60;0.90;;;15.50;58.50;;;;;;4972373;28;20066;-85
2022/05/29 08:12:08;;;;;;;0.95;0.95;;;15.50;58.60;;;;;;4956234;28;20035;-81
2022/05/29 08:14:34;;;;;;;1.30;1.00;;;15.50;58.60;;;;;;4942535;28;20034;-81
2022/05/29 08:17:00;;;;;;;0.90;0.90;;;15.50;58.60;;;;;;4940955;28;20526;-80
2022/05/29 08:19:26;;;;;;;1.52;1.10;;;15.50;58.60;;;;;;4974700;28;20035;-80
2022/05/29 08:21:52;;;;;;;1.30;1.10;;;15.50;58.60;;;;;;4974418;28;20110;-81
2022/05/29 08:32:31;;;;;;;0.80;0.80;;;15.60;58.60;;;;;;4955872;28;20410;-80
2022/05/29 08:34:56;;;;;;;1.30;1.00;;;15.60;58.60;;;;;;4961192;28;20482;-80
2022/05/29 08:37:22;;;;;;;1.05;1.00;;;15.60;58.60;;;;;;4952923;28;20031;-79
2022/05/29 08:39:48;;;;;;;1.10;0.80;;;15.70;58.70;;;;;;4959495;28;20026;-80
2022/05/29 08:42:17;;;;;;;0.80;0.80;;;15.70;58.70;;;;;;4955463;28;20031;-79
2022/05/29 08:44:49;;;;;;;0.95;0.90;;;15.70;58.70;;;;;;4972716;28;20027;-79
2022/05/29 08:47:20;;;;;;;0.80;0.80;;;15.70;58.70;;;;;;4960895;28;20332;-80
2022/05/29 08:49:48;;;;;;;0.90;0.90;;;15.70;58.60;;;;;;4983467;28;20042;-80
2022/05/29 08:52:14;;;;;;;1.42;1.10;;;15.70;58.70;;;;;;4973079;28;20026;-79
2022/05/29 08:55:02;;;;;;;0.82;0.82;;;15.80;58.70;;;;;;4966853;28;20038;-79
2022/05/29 08:57:43;;;;;;;1.48;1.05;;;15.70;58.90;;;;;;4966582;28;20031;-79
2022/05/29 09:00:16;;;;;;;0.90;0.90;;;15.80;58.80;;;;;;4965374;28;20027;-79
2022/05/29 09:03:08;;;;;;;1.30;1.10;;;15.80;58.80;;;;;;4969515;28;20479;-77
2022/05/29 09:05:48;;;;;;;1.13;0.90;;;15.80;58.90;;;;;;4948957;28;20026;-81
2022/05/29 09:08:39;;;;;;;1.02;1.00;;;15.90;58.90;;;;;;4968366;28;20039;-80
2022/05/29 09:11:39;;;;;;;0.80;0.80;;;15.80;58.90;;;;;;4950252;28;20069;-82
2022/05/29 09:14:23;;;;;;;1.13;1.02;;;15.90;58.90;;;;;;4960160;28;20089;-81
2022/05/29 09:16:57;;;;;;;1.02;0.90;;;15.90;58.90;;;;;;4970940;28;20423;-79
2022/05/29 09:19:37;;;;;;;1.15;1.05;;;15.90;58.90;;;;;;4952877;28;20043;-80
2022/05/29 09:22:15;;;;;;;0.88;0.88;;;15.90;58.90;;;;;;4966951;28;20108;-79
2022/05/29 09:25:10;;;;;;;0.80;0.80;;;16.00;58.90;;;;;;4966943;28;20041;-79
2022/05/29 09:27:38;;;;;;;1.05;1.00;;;16.00;58.90;;;;;;4951095;28;20480;-80
2022/05/29 09:30:06;;;;;;;0.90;0.90;;;16.00;58.60;;;;;;4970364;28;20349;-80
2022/05/29 09:32:33;;;;;;;0.88;0.88;;;16.10;58.70;;;;;;4964612;28;20083;-78
2022/05/29 09:35:24;;;;;;;0.80;0.80;;;16.10;58.70;;;;;;4969891;28;20377;-81
2022/05/29 09:37:56;;;;;;;0.82;0.80;;;16.10;58.80;;;;;;4970439;28;20034;-80
2022/05/29 09:40:29;;;;;;;2.08;0.90;;;16.20;58.70;;;;;;4970659;28;20018;-80
2022/05/29 09:42:55;;;;;;;1.77;0.95;;;16.20;58.70;;;;;;4954518;28;20019;-81
2022/05/29 09:45:22;;;;;;;3.13;1.15;;;16.20;58.60;;;;;;4954336;28;20026;-80
2022/05/29 09:50:51;;;;;;;0.93;0.90;;;16.30;58.70;;;;;;4965064;28;20051;-78
2022/05/29 09:53:20;;;;;;;1.50;0.93;;;16.30;58.80;;;;;;4973645;28;20039;-81
2022/05/29 09:55:58;;;;;;;1.00;0.90;;;16.30;58.70;;;;;;4960509;28;20030;-80
2022/05/29 09:58:51;;;;;;;1.60;0.95;;;16.40;58.70;;;;;;4967483;28;20459;-79
2022/05/29 10:01:29;;;;;;;0.93;0.90;;;16.40;58.80;;;;;;4963833;28;20027;-79
2022/05/29 10:04:01;;;;;;;0.80;0.80;;;16.40;58.70;;;;;;4954265;28;20371;-81
2022/05/29 10:06:30;;;;;;;1.15;0.90;;;16.50;58.70;;;;;;4971515;28;20034;-80
2022/05/29 10:09:13;;;;;;;1.23;0.90;;;16.50;58.70;;;;;;4970253;28;20030;-80
2022/05/29 10:11:40;;;;;;;1.80;0.90;;;16.50;58.80;;;;;;4946412;28;20030;-78
2022/05/29 10:14:37;;;;;;;0.90;0.90;;;16.60;58.70;;;;;;4970396;28;20177;-79
2022/05/29 10:17:14;;;;;;;1.55;1.20;;;16.70;58.80;;;;;;4970595;28;20094;-79
2022/05/29 10:19:45;;;;;;;1.10;0.95;;;16.70;58.70;;;;;;4970658;28;20047;-79
2022/05/29 10:22:16;;;;;;;2.28;0.90;;;16.70;58.60;;;;;;4953764;28;20526;-80
2022/05/29 10:24:43;;;;;;;1.30;0.88;;;16.80;58.60;;;;;;4970225;28;20447;-79
2022/05/29 10:27:34;;;;;;;2.33;0.90;;;16.80;58.50;;;;;;4951076;29;20440;-80
2022/05/29 10:30:10;;;;;;;0.93;0.80;;;16.80;58.50;;;;;;4954165;28;20038;-78
2022/05/29 10:32:41;;;;;;;0.80;0.80;;;16.90;58.40;;;;;;4954118;28;20065;-79
2022/05/29 10:35:17;;;;;;;1.20;0.80;;;16.90;58.40;;;;;;4943608;29;20067;-80
2022/05/29 10:37:45;;;;;;;0.80;0.80;;;17.00;58.40;;;;;;4966798;28;20031;-80
2022/05/29 10:40:31;;;;;;;1.30;0.75;;;17.00;58.40;;;;;;4963271;28;20114;-79
2022/05/29 10:43:03;;;;;;;1.20;0.90;;;17.10;58.50;;;;;;4971839;28;20027;-80
2022/05/29 10:45:47;;;;;;;1.70;1.02;;;17.10;58.20;;;;;;4971647;28;20019;-79
2022/05/29 10:48:32;;;;;;;1.15;0.95;;;17.10;58.30;;;;;;4969596;28;20143;-80
2022/05/29 10:51:18;;;;;;;1.07;0.80;;;17.20;58.20;;;;;;4969225;28;20060;-82
2022/05/29 10:54:03;;;;;;;2.10;1.10;;;17.20;58.20;;;;;;4954180;28;20290;-83
2022/05/29 10:56:41;;;;;;;1.73;0.82;;;17.30;58.10;;;;;;4971955;28;20033;-82
2022/05/29 10:59:25;;;;;;;1.70;1.00;;;17.30;58.10;;;;;;4971925;28;20022;-81
2022/05/29 11:05:21;;;;;;;0.80;0.80;;;17.40;58.10;;;;;;4987411;28;20102;-80
2022/05/29 11:08:08;;;;;;;1.20;0.80;;;17.40;58.10;;;;;;4980239;28;20034;-80
2022/05/29 11:10:52;;;;;;;0.85;0.80;;;17.40;58.00;;;;;;4981464;28;20065;-79
2022/05/29 11:13:37;;;;;;;1.15;0.93;;;17.40;58.00;;;;;;4973605;28;20027;-79
2022/05/29 11:16:24;;;;;;;1.67;0.90;;;17.50;58.00;;;;;;4967242;28;20050;-79
2022/05/29 11:18:53;;;;;;;1.08;0.90;;;17.50;57.90;;;;;;4978741;28;20034;-80
2022/05/29 11:21:29;;;;;;;1.02;0.85;;;17.50;57.70;;;;;;4974075;28;20054;-80
2022/05/29 11:24:20;;;;;;;2.10;1.08;;;17.60;57.80;;;;;;4957074;28;20088;-79
2022/05/29 11:27:20;;;;;;;1.35;0.90;;;17.60;57.80;;;;;;4972784;28;20039;-79
2022/05/29 11:30:05;;;;;;;1.42;0.90;;;17.60;57.70;;;;;;4969065;28;20047;-78
2022/05/29 11:32:45;;;;;;;0.88;0.68;;;17.60;57.60;;;;;;4974867;28;20031;-79
2022/05/29 11:35:34;;;;;;;1.60;1.00;;;17.70;57.50;;;;;;4972538;28;20010;-80
2022/05/29 11:38:21;;;;;;;2.15;1.45;;;17.80;57.50;;;;;;4973221;28;20031;-80
2022/05/29 11:40:53;;;;;;;1.10;1.00;;;17.80;57.40;;;;;;4971562;28;20054;-81
2022/05/29 11:43:34;;;;;;;1.75;1.00;;;17.80;57.30;;;;;;4966449;28;20113;-80
2022/05/29 11:52:01;;;;;;;1.10;0.80;;;17.90;57.20;;;;;;4967241;28;20192;-80
2022/05/29 11:54:38;;;;;;;1.47;0.90;;;18.00;57.10;;;;;;4970313;28;20058;-79
2022/05/29 11:57:19;;;;;;;1.52;0.75;;;18.00;57.10;;;;;;4969103;28;20027;-77
2022/05/29 12:00:19;;;;;;;0.90;0.90;;;18.00;57.10;;;;;;4966638;28;20030;-78
2022/05/29 12:03:25;;;;;;;1.95;1.25;;;18.10;57.10;;;;;;4957419;29;20055;-79
2022/05/29 12:06:00;;;;;;;4.18;1.27;;;18.10;57.10;;;;;;4965627;28;20416;-79
2022/05/29 12:08:41;;;;;;;1.40;0.80;;;18.20;56.90;;;;;;4970831;28;20475;-79
2022/05/29 12:11:46;;;;;;;2.53;0.93;;;18.20;56.90;;;;;;4973190;28;20412;-80
2022/05/29 12:14:27;;;;;;;0.85;0.60;;;18.20;56.90;;;;;;4951974;28;20455;-79
2022/05/29 12:17:06;;;;;;;1.17;0.75;;;18.20;56.80;;;;;;4964679;28;20027;-80
2022/05/29 12:19:43;;;;;;;1.25;0.90;;;18.30;56.80;;;;;;4970783;28;20460;-81
2022/05/29 12:22:11;;;;;;;1.55;0.80;;;18.30;56.70;;;;;;4966659;28;20031;-80
2022/05/29 12:24:42;;;;;;;1.83;1.00;;;18.40;56.70;;;;;;4995201;28;20058;-81
2022/05/29 12:27:19;;;;;;;1.15;0.80;;;18.40;56.60;;;;;;4972151;28;20063;-81
2022/05/29 12:30:08;;;;;;;1.23;0.80;;;18.50;56.60;;;;;;4971371;28;20088;-80
2022/05/29 12:32:35;;;;;;;1.70;0.85;;;18.50;56.50;;;;;;4967444;28;20089;-85
2022/05/29 12:35:22;;;;;;;1.10;0.90;;;18.60;56.40;;;;;;4971658;28;20100;-82
2022/05/29 12:37:56;;;;;;;1.48;0.80;;;18.60;56.40;;;;;;4972737;28;20034;-79
2022/05/29 12:40:32;;;;;;;2.22;0.93;;;18.70;56.40;;;;;;4954034;28;20034;-82
2022/05/29 12:43:38;;;;;;;1.77;1.00;;;18.70;56.40;;;;;;4972007;28;20035;-82
2022/05/29 12:46:36;;;;;;;1.15;0.80;;;18.80;56.50;;;;;;4921986;28;20058;-81
2022/05/29 12:49:11;;;;;;;1.48;0.70;;;18.80;56.40;;;;;;4969190;28;20451;-81
2022/05/29 12:52:04;;;;;;;1.00;0.70;;;18.80;56.20;;;;;;4968711;28;20035;-81
2022/05/29 12:54:51;;;;;;;0.70;0.70;;;18.90;56.20;;;;;;4968005;28;20475;-81
2022/05/29 12:57:16;;;;;;;1.35;0.90;;;18.90;56.10;;;;;;4967947;28;20034;-82
2022/05/29 13:00:08;;;;;;;1.70;0.98;;;19.00;55.90;;;;;;4972154;28;20030;-81
2022/05/29 13:02:40;;;;;;;1.83;0.90;;;19.00;56.00;;;;;;4966323;28;20042;-82
2022/05/29 13:05:35;;;;;;;0.70;0.70;;;19.00;55.80;;;;;;4973379;28;20151;-81
2022/05/29 13:08:20;;;;;;;;;;;19.10;55.80;;;;;;4964870;28;20447;-81
2022/05/29 13:10:51;;;;;;;1.35;0.80;;;19.10;55.70;;;;;;4987262;28;19997;-82
2022/05/29 13:13:33;;;;;;;0.68;0.68;;;19.10;55.60;;;;;;4971619;28;20031;-79
2022/05/29 13:16:23;;;;;;;1.40;0.80;;;19.10;55.70;;;;;;4958102;28;20070;-79
2022/05/29 13:21:30;;;;;;;1.20;0.80;;;19.20;56.20;;;;;;4971180;28;20046;-82
2022/05/29 13:23:58;;;;;;;1.95;1.00;;;19.20;55.40;;;;;;4954816;28;20087;-82
2022/05/29 13:26:26;;;;;;;1.23;0.77;;;19.20;55.40;;;;;;4954931;28;20101;-82
2022/05/29 13:29:09;;;;;;;0.70;0.70;;;19.20;55.30;;;;;;4963765;28;20081;-83
2022/05/29 13:32:21;;;;;;;0.90;0.73;;;19.30;55.30;;;;;;4949903;28;20050;-81
2022/05/29 13:34:49;;;;;;;1.13;0.80;;;19.30;55.10;;;;;;4966022;28;20240;-81
2022/05/29 13:37:37;;;;;;;0.75;0.70;;;19.30;55.00;;;;;;4969458;28;20043;-81
2022/05/29 13:40:06;;;;;;;0.70;0.70;;;19.30;54.90;;;;;;4970313;28;20029;-78
2022/05/29 13:42:43;;;;;;;0.70;0.70;;;19.40;54.80;;;;;;4973226;28;20375;-79
2022/05/29 13:45:24;;;;;;;0.82;0.80;;;19.40;54.80;;;;;;4970716;28;20041;-80
2022/05/29 13:48:10;;;;;;;0.88;0.68;;;19.40;54.70;;;;;;4954603;28;20066;-78
2022/05/29 13:50:54;;;;;;;0.77;0.70;;;19.40;54.60;;;;;;4999791;28;20037;-80
2022/05/29 13:53:25;;;;;;;0.98;0.98;;;19.40;54.70;;;;;;4969301;28;20045;-79
2022/05/29 13:56:00;;;;;;;0.98;0.80;;;19.40;54.50;;;;;;4972542;28;20461;-81
2022/05/29 14:04:23;;;;;;;1.20;0.80;;;19.50;54.40;;;;;;4966358;28;20066;-80
2022/05/29 14:07:33;;;;;;;1.35;0.75;;;19.50;54.40;;;;;;4950431;28;20035;-83
2022/05/29 14:10:07;;;;;;;1.00;0.70;;;19.50;54.40;;;;;;4900690;29;20053;-83